createdAt,value
2023-04-06T00:01:36.768Z,6.60
2023-04-06T00:04:04.639Z,7.53
2023-04-06T00:06:32.823Z,6.45
2023-04-06T00:09:00.726Z,6.82
2023-04-06T00:11:28.486Z,6.93
2023-04-06T00:13:57.630Z,6.70
2023-04-06T00:16:26.537Z,6.53
2023-04-06T00:18:55.730Z,7.07
2023-04-06T00:21:23.528Z,7.22
2023-04-06T00:23:51.181Z,6.60
2023-04-06T00:26:18.830Z,5.97
2023-04-06T00:28:46.481Z,6.25
2023-04-06T00:31:15.637Z,6.32
2023-04-06T00:33:43.343Z,6.40
2023-04-06T00:36:11.276Z,7.55
2023-04-06T00:38:38.940Z,7.00
2023-04-06T00:41:06.729Z,6.45
2023-04-06T00:43:34.454Z,6.45
2023-04-06T00:46:02.202Z,6.68
2023-04-06T00:48:32.263Z,6.88
2023-04-06T00:51:00.313Z,6.95
2023-04-06T00:53:27.922Z,6.20
2023-04-06T00:56:27.163Z,5.88
2023-04-06T00:58:54.978Z,7.97
2023-04-06T01:01:22.586Z,6.68
2023-04-06T01:03:51.303Z,6.75
2023-04-06T01:06:18.980Z,6.60
2023-04-06T01:08:46.898Z,6.97
2023-04-06T01:11:14.857Z,6.45
2023-04-06T01:13:43.869Z,6.50
2023-04-06T01:16:11.767Z,7.05
2023-04-06T01:18:40.621Z,7.28
2023-04-06T01:21:09.678Z,6.40
2023-04-06T01:23:38.651Z,6.55
2023-04-06T01:26:06.436Z,6.82
2023-04-06T01:28:34.090Z,7.30
2023-04-06T01:31:01.989Z,6.95
2023-04-06T01:33:29.791Z,6.88
2023-04-06T01:35:57.716Z,6.18
2023-04-06T01:38:25.502Z,6.90
2023-04-06T01:40:54.609Z,6.47
2023-04-06T01:43:22.435Z,7.03
2023-04-06T01:45:49.990Z,6.22
2023-04-06T01:48:17.705Z,6.80
2023-04-06T01:50:45.611Z,6.72
2023-04-06T01:53:13.471Z,6.60
2023-04-06T01:55:41.073Z,7.22
2023-04-06T01:58:10.623Z,7.07
2023-04-06T02:00:38.235Z,7.20
2023-04-06T02:03:06.241Z,6.72
2023-04-06T02:05:38.703Z,7.93
2023-04-06T02:08:06.823Z,6.97
2023-04-06T02:10:34.764Z,7.70
2023-04-06T02:13:02.790Z,6.25
2023-04-06T02:15:31.716Z,7.18
2023-04-06T02:17:59.520Z,7.00
2023-04-06T02:20:27.123Z,7.40
2023-04-06T02:22:54.652Z,6.57
2023-04-06T02:25:22.271Z,6.82
2023-04-06T02:27:49.773Z,6.68
2023-04-06T02:30:17.290Z,6.93
2023-04-06T02:32:46.206Z,6.85
2023-04-06T02:35:13.975Z,7.28
2023-04-06T02:37:41.508Z,6.35
2023-04-06T02:40:10.495Z,7.28
2023-04-06T02:42:38.007Z,6.55
2023-04-06T02:45:06.630Z,7.07
2023-04-06T02:47:34.847Z,7.18
2023-04-06T02:50:03.954Z,7.57
2023-04-06T02:52:31.464Z,7.15
2023-04-06T02:54:59.063Z,6.70
2023-04-06T02:57:26.588Z,7.10
2023-04-06T02:59:54.100Z,6.97
2023-04-06T03:02:21.758Z,6.60
2023-04-06T03:04:49.319Z,7.25
2023-04-06T03:07:18.208Z,6.95
2023-04-06T03:09:46.234Z,7.38
2023-04-06T03:12:13.754Z,7.13
2023-04-06T03:14:41.312Z,7.60
2023-04-06T03:17:08.819Z,7.18
2023-04-06T03:19:36.372Z,6.68
2023-04-06T03:22:04.041Z,6.20
2023-04-06T03:24:32.925Z,7.22
2023-04-06T03:27:01.181Z,7.65
2023-04-06T03:29:29.019Z,6.90
2023-04-06T03:31:56.578Z,8.77
2023-04-06T03:34:24.073Z,7.32
2023-04-06T03:37:02.898Z,7.32
2023-04-06T03:39:38.032Z,7.32
2023-04-06T03:42:05.838Z,7.57
2023-04-06T03:44:33.747Z,7.57
2023-04-06T03:47:01.875Z,8.77
2023-04-06T03:49:29.387Z,7.82
2023-04-06T03:51:58.282Z,8.23
2023-04-06T03:54:25.921Z,7.55
2023-04-06T03:56:54.779Z,7.82
2023-04-06T03:59:22.397Z,8.02
2023-04-06T04:01:49.999Z,8.20
2023-04-06T04:04:17.507Z,8.98
2023-04-06T04:06:45.078Z,8.63
2023-04-06T04:09:12.679Z,10.30
2023-04-06T04:11:40.334Z,10.15
2023-04-06T04:14:09.162Z,10.82
2023-04-06T04:16:36.731Z,10.90
2023-04-06T04:19:04.353Z,11.27
2023-04-06T04:21:32.280Z,10.85
2023-04-06T04:23:59.953Z,9.95
2023-04-06T04:26:27.722Z,10.65
2023-04-06T04:28:55.215Z,10.27
2023-04-06T04:31:24.325Z,10.13
2023-04-06T04:33:51.920Z,9.38
2023-04-06T04:36:19.455Z,11.00
2023-04-06T04:38:46.982Z,10.80
2023-04-06T04:41:14.538Z,10.18
2023-04-06T04:43:42.032Z,9.25
2023-04-06T04:46:09.569Z,9.10
2023-04-06T04:48:39.860Z,10.70
2023-04-06T04:51:08.148Z,9.35
2023-04-06T04:53:35.816Z,9.60
2023-04-06T04:56:03.372Z,9.23
2023-04-06T04:58:31.304Z,8.52
2023-04-06T05:00:58.849Z,8.85
2023-04-06T05:03:28.456Z,8.60
2023-04-06T05:05:57.584Z,9.02
2023-04-06T05:08:25.171Z,9.48
2023-04-06T05:10:52.808Z,9.40
2023-04-06T05:13:20.577Z,10.60
2023-04-06T05:15:48.181Z,9.75
2023-04-06T05:18:15.847Z,10.23
2023-04-06T05:20:44.530Z,9.68
2023-04-06T05:23:13.805Z,9.55
2023-04-06T05:25:41.688Z,9.25
2023-04-06T05:28:09.306Z,9.63
2023-04-06T05:30:37.072Z,10.13
2023-04-06T05:33:04.779Z,9.13
2023-04-06T05:35:32.343Z,9.38
2023-04-06T05:37:59.941Z,9.52
2023-04-06T05:40:28.847Z,9.95
2023-04-06T05:42:56.402Z,10.30
2023-04-06T05:45:23.971Z,10.35
2023-04-06T05:47:51.619Z,10.30
2023-04-06T05:50:19.312Z,10.68
2023-04-06T05:52:47.436Z,10.20
2023-04-06T05:55:15.016Z,10.57
2023-04-06T05:57:43.880Z,10.93
2023-04-06T06:00:12.919Z,11.05
2023-04-06T06:02:43.124Z,10.68
2023-04-06T06:05:10.880Z,9.70
2023-04-06T06:07:38.465Z,9.55
2023-04-06T06:10:06.500Z,11.43
2023-04-06T06:12:34.043Z,10.15
2023-04-06T06:15:02.901Z,10.05
2023-04-06T06:17:30.401Z,10.80
2023-04-06T06:19:57.991Z,10.45
2023-04-06T06:22:25.565Z,10.35
2023-04-06T06:24:53.089Z,10.38
2023-04-06T06:27:20.758Z,9.65
2023-04-06T06:29:48.302Z,9.38
2023-04-06T06:32:17.267Z,8.98
2023-04-06T06:34:44.776Z,9.13
2023-04-06T06:37:12.322Z,10.10
2023-04-06T06:39:39.951Z,8.70
2023-04-06T06:42:07.714Z,9.88
2023-04-06T06:44:35.252Z,10.63
2023-04-06T06:47:03.150Z,11.73
2023-04-06T06:49:31.998Z,9.85
2023-04-06T06:51:59.488Z,9.27
2023-04-06T06:54:27.060Z,9.27
2023-04-06T06:56:55.285Z,10.07
2023-04-06T06:59:23.040Z,8.15
2023-04-06T07:01:52.173Z,9.52
2023-04-06T07:04:19.806Z,9.55
2023-04-06T07:06:48.756Z,9.15
2023-04-06T07:09:16.290Z,9.35
2023-04-06T07:11:43.809Z,9.32
2023-04-06T07:14:12.545Z,9.05
2023-04-06T07:16:40.223Z,9.48
2023-04-06T07:19:07.859Z,9.15
2023-04-06T07:21:35.372Z,9.70
2023-04-06T07:24:04.326Z,8.75
2023-04-06T07:26:31.915Z,9.75
2023-04-06T07:28:59.721Z,9.63
2023-04-06T07:31:27.255Z,10.10
2023-04-06T07:33:54.787Z,9.13
2023-04-06T07:36:22.533Z,9.93
2023-04-06T07:38:50.110Z,9.43
2023-04-06T07:41:19.033Z,10.23
2023-04-06T07:43:46.557Z,10.27
2023-04-06T07:46:14.150Z,10.70
2023-04-06T07:48:41.759Z,8.82
2023-04-06T07:51:11.340Z,9.85
2023-04-06T07:53:38.871Z,8.38
2023-04-06T07:56:06.734Z,9.25
2023-04-06T07:58:35.605Z,7.85
2023-04-06T08:01:03.239Z,8.95
2023-04-06T08:03:31.264Z,8.18
2023-04-06T08:05:59.004Z,9.30
2023-04-06T08:08:26.758Z,9.43
2023-04-06T08:10:54.370Z,8.93
2023-04-06T08:13:21.986Z,9.80
2023-04-06T08:15:51.088Z,9.25
2023-04-06T08:18:18.840Z,9.95
2023-04-06T08:20:46.661Z,9.45
2023-04-06T08:23:14.212Z,9.20
2023-04-06T08:25:41.838Z,9.55
2023-04-06T08:28:10.382Z,9.45
2023-04-06T08:30:38.232Z,9.25
2023-04-06T08:33:07.385Z,8.25
2023-04-06T08:35:35.030Z,8.57
2023-04-06T08:38:02.671Z,9.38
2023-04-06T08:40:30.445Z,9.25
2023-04-06T08:42:58.759Z,8.65
2023-04-06T08:45:26.638Z,8.60
2023-04-06T08:47:55.821Z,8.32
2023-04-06T08:50:27.091Z,6.78
2023-04-06T08:52:54.692Z,7.57
2023-04-06T08:55:23.485Z,6.47
2023-04-06T08:57:54.430Z,6.95
2023-04-06T09:00:22.522Z,7.28
2023-04-06T09:02:52.119Z,7.55
2023-04-06T09:05:20.705Z,8.07
2023-04-06T09:07:49.828Z,7.75
2023-04-06T09:10:18.824Z,7.88
2023-04-06T09:12:46.396Z,7.60
2023-04-06T09:15:23.579Z,8.13
2023-04-06T09:17:54.871Z,8.27
2023-04-06T09:20:26.862Z,8.30
2023-04-06T09:22:57.040Z,8.18
2023-04-06T09:25:27.352Z,7.38
2023-04-06T09:28:01.904Z,7.47
2023-04-06T09:30:29.456Z,6.70
2023-04-06T09:32:58.480Z,6.70
2023-04-06T09:35:27.575Z,6.97
2023-04-06T09:37:57.468Z,6.10
2023-04-06T09:40:25.321Z,5.65
2023-04-06T09:42:55.332Z,5.30
2023-04-06T09:45:23.045Z,6.90
2023-04-06T09:47:52.545Z,6.13
2023-04-06T09:50:21.584Z,7.10
2023-04-06T09:52:52.087Z,7.35
2023-04-06T09:55:27.703Z,7.00
2023-04-06T09:58:03.182Z,7.53
2023-04-06T10:00:34.252Z,7.47
2023-04-06T10:03:13.367Z,7.75
2023-04-06T10:05:48.570Z,5.97
2023-04-06T10:08:17.303Z,7.32
2023-04-06T10:10:47.104Z,7.82
2023-04-06T10:13:14.681Z,7.28
2023-04-06T10:15:43.772Z,7.57
2023-04-06T10:18:11.533Z,7.28
2023-04-06T10:20:44.037Z,7.03
2023-04-06T10:23:16.845Z,6.68
2023-04-06T10:25:56.444Z,6.25
2023-04-06T10:28:24.878Z,6.68
2023-04-06T10:30:59.959Z,6.00
2023-04-06T10:33:27.968Z,7.70
2023-04-06T10:35:56.511Z,7.43
2023-04-06T10:38:37.084Z,6.40
2023-04-06T10:41:08.512Z,6.88
2023-04-06T10:43:37.620Z,7.13
2023-04-06T10:46:07.103Z,6.93
2023-04-06T10:48:42.443Z,7.30
2023-04-06T10:51:12.092Z,7.22
2023-04-06T10:53:40.144Z,7.50
2023-04-06T10:56:12.822Z,7.00
2023-04-06T10:58:45.846Z,6.45
2023-04-06T11:01:13.665Z,7.03
2023-04-06T11:03:47.409Z,7.13
2023-04-06T11:06:20.649Z,6.97
2023-04-06T11:08:48.212Z,6.35
2023-04-06T11:11:19.398Z,7.45
2023-04-06T11:13:51.718Z,6.78
2023-04-06T11:16:20.605Z,6.63
2023-04-06T11:18:56.598Z,6.22
2023-04-06T11:21:35.700Z,6.78
2023-04-06T11:24:10.784Z,7.80
2023-04-06T11:26:45.453Z,6.63
2023-04-06T11:29:14.133Z,6.72
2023-04-06T11:31:43.620Z,6.75
2023-04-06T11:34:12.382Z,7.20
2023-04-06T11:36:43.239Z,6.60
2023-04-06T11:39:12.078Z,7.20
2023-04-06T11:41:39.702Z,6.20
2023-04-06T11:44:08.800Z,6.72
2023-04-06T11:46:36.804Z,6.63
2023-04-06T11:49:04.641Z,6.97
2023-04-06T11:51:32.218Z,6.72
2023-04-06T11:53:59.817Z,4.82
2023-04-06T11:56:29.103Z,6.72
2023-04-06T11:58:57.780Z,7.00
2023-04-06T12:01:27.419Z,5.70
2023-04-06T12:03:56.081Z,6.28
2023-04-06T12:06:23.763Z,6.15
2023-04-06T12:08:51.459Z,6.32
2023-04-06T12:11:20.860Z,5.68
2023-04-06T12:13:48.502Z,6.38
2023-04-06T12:16:16.154Z,6.30
2023-04-06T12:18:45.315Z,6.20
2023-04-06T12:21:12.849Z,6.53
2023-04-06T12:23:40.465Z,6.15
2023-04-06T12:26:13.191Z,6.07
2023-04-06T12:28:41.338Z,6.13
2023-04-06T12:31:16.740Z,6.38
2023-04-06T12:33:46.327Z,5.55
2023-04-06T12:36:14.638Z,6.13
2023-04-06T12:38:42.418Z,6.68
2023-04-06T12:41:10.003Z,5.57
2023-04-06T12:43:37.556Z,5.70
2023-04-06T12:46:05.532Z,6.03
2023-04-06T12:48:33.727Z,5.07
2023-04-06T12:51:04.939Z,5.28
2023-04-06T12:53:33.445Z,6.68
2023-04-06T12:56:02.454Z,6.13
2023-04-06T12:58:30.518Z,5.47
2023-04-06T13:01:03.844Z,5.38
2023-04-06T13:03:31.771Z,5.68
2023-04-06T13:06:02.924Z,5.35
2023-04-06T13:08:30.730Z,5.47
2023-04-06T13:10:58.510Z,5.22
2023-04-06T13:13:27.435Z,4.80
2023-04-06T13:15:56.487Z,4.65
2023-04-06T13:18:25.548Z,5.25
2023-04-06T13:20:53.148Z,5.28
2023-04-06T13:23:22.138Z,5.15
2023-04-06T13:25:49.720Z,5.00
2023-04-06T13:28:17.335Z,4.95
2023-04-06T13:30:45.400Z,4.90
2023-04-06T13:33:15.829Z,4.72
2023-04-06T13:35:48.450Z,4.18
2023-04-06T13:38:16.234Z,4.82
2023-04-06T13:40:45.489Z,5.13
2023-04-06T13:43:13.054Z,5.18
2023-04-06T13:45:41.093Z,4.80
2023-04-06T13:48:08.961Z,4.80
2023-04-06T13:50:36.760Z,5.25
2023-04-06T13:53:04.298Z,5.07
2023-04-06T13:55:32.267Z,4.75
2023-04-06T13:58:01.266Z,5.20
2023-04-06T14:00:28.927Z,4.07
2023-04-06T14:02:56.963Z,4.20
2023-04-06T14:05:24.772Z,5.13
2023-04-06T14:07:52.356Z,4.30
2023-04-06T14:10:22.148Z,4.47
2023-04-06T14:12:49.707Z,4.90
2023-04-06T14:15:23.268Z,5.25
2023-04-06T14:25:56.635Z,4.22
2023-04-06T14:31:50.095Z,4.30
2023-04-06T14:34:35.806Z,4.40
2023-04-06T14:37:09.046Z,4.72
2023-04-06T14:47:40.640Z,5.30
2023-04-06T14:50:38.028Z,4.57
2023-04-06T14:56:12.020Z,4.13
2023-04-06T14:59:02.690Z,4.47
2023-04-06T15:02:30.587Z,4.15
2023-04-06T15:08:53.729Z,4.38
2023-04-06T15:11:21.498Z,4.28
2023-04-06T15:13:49.990Z,4.88
2023-04-06T15:16:17.700Z,5.00
2023-04-06T15:18:45.333Z,4.63
2023-04-06T15:26:45.452Z,4.93
2023-04-06T15:29:13.013Z,4.90
2023-04-06T15:34:24.334Z,4.53
2023-04-06T15:54:18.849Z,4.30
2023-04-06T16:04:44.618Z,3.72
2023-04-06T16:14:37.220Z,3.70
2023-04-06T16:18:01.354Z,4.05
2023-04-06T16:20:49.278Z,3.67
2023-04-06T16:23:17.971Z,4.30
2023-04-06T16:25:47.030Z,4.88
2023-04-06T16:28:15.982Z,4.72
2023-04-06T16:30:47.518Z,4.60
2023-04-06T16:33:19.253Z,4.43
2023-04-06T16:35:49.996Z,4.57
2023-04-06T16:38:18.070Z,3.97
2023-04-06T16:40:50.008Z,4.90
2023-04-06T16:43:26.268Z,4.15
2023-04-06T16:45:55.337Z,3.58
2023-04-06T16:48:43.723Z,4.40
2023-04-06T16:56:19.085Z,4.05
2023-04-06T17:03:09.767Z,3.38
2023-04-06T17:05:41.902Z,4.05
2023-04-06T17:08:23.969Z,3.83
2023-04-06T17:11:07.589Z,4.07
2023-04-06T17:13:35.386Z,3.80
2023-04-06T17:16:03.532Z,4.35
2023-04-06T17:18:31.048Z,4.10
2023-04-06T17:21:00.287Z,4.05
2023-04-06T17:23:27.769Z,4.70
2023-04-06T17:25:57.429Z,4.68
2023-04-06T17:28:25.311Z,4.28
2023-04-06T17:30:53.016Z,4.38
2023-04-06T17:33:22.152Z,4.55
2023-04-06T17:35:49.821Z,4.57
2023-04-06T17:38:19.570Z,4.25
2023-04-06T17:40:47.142Z,3.75
2023-04-06T17:43:14.736Z,4.38
2023-04-06T17:45:42.279Z,4.18
2023-04-06T17:48:09.788Z,4.22
2023-04-06T17:50:38.900Z,4.28
2023-04-06T17:53:06.853Z,4.38
2023-04-06T17:55:35.797Z,4.53
2023-04-06T17:58:03.670Z,4.90
2023-04-06T18:00:31.335Z,5.13
2023-04-06T18:02:59.024Z,5.38
2023-04-06T18:05:27.009Z,4.63
2023-04-06T18:07:55.443Z,4.40
2023-04-06T18:10:23.189Z,4.55
2023-04-06T18:12:52.245Z,3.50
2023-04-06T18:15:19.771Z,3.92
2023-04-06T18:17:47.343Z,4.20
2023-04-06T18:20:15.837Z,3.90
2023-04-06T18:22:43.606Z,3.88
2023-04-06T18:25:12.870Z,3.10
2023-04-06T18:27:40.369Z,3.80
2023-04-06T18:30:12.970Z,3.42
2023-04-06T18:32:40.920Z,3.90
2023-04-06T18:35:11.249Z,3.33
2023-04-06T18:37:38.777Z,3.90
2023-04-06T18:40:07.602Z,4.97
2023-04-06T18:42:35.117Z,4.38
2023-04-06T18:45:02.837Z,4.22
2023-04-06T18:47:31.701Z,4.25
2023-04-06T18:49:59.246Z,4.13
2023-04-06T18:52:27.007Z,5.65
2023-04-06T18:54:54.490Z,4.57
2023-04-06T18:57:22.014Z,4.65
2023-04-06T18:59:49.582Z,4.65
2023-04-06T19:02:17.116Z,4.07
2023-04-06T19:04:46.164Z,5.32
2023-04-06T19:07:13.763Z,4.97
2023-04-06T19:09:41.458Z,4.53
2023-04-06T19:12:08.958Z,4.45
2023-04-06T19:14:36.504Z,5.22
2023-04-06T19:17:04.073Z,5.43
2023-04-06T19:19:31.576Z,4.75
2023-04-06T19:22:00.668Z,5.45
2023-04-06T19:24:28.167Z,6.07
2023-04-06T19:26:55.709Z,5.43
2023-04-06T19:29:24.469Z,5.03
2023-04-06T19:31:52.192Z,4.90
2023-04-06T19:34:19.799Z,5.40
2023-04-06T19:36:47.557Z,5.35
2023-04-06T19:39:17.874Z,5.32
2023-04-06T19:41:45.365Z,4.57
2023-04-06T19:44:13.098Z,5.22
2023-04-06T19:46:40.636Z,5.60
2023-04-06T19:49:08.182Z,6.13
2023-04-06T19:51:36.199Z,5.93
2023-04-06T19:54:04.150Z,6.45
2023-04-06T19:56:33.152Z,7.07
2023-04-06T19:59:01.575Z,5.78
2023-04-06T20:01:29.213Z,5.72
2023-04-06T20:03:56.904Z,5.63
2023-04-06T20:06:24.503Z,5.25
2023-04-06T20:08:52.073Z,5.53
2023-04-06T20:11:19.676Z,5.65
2023-04-06T20:13:48.667Z,5.93
2023-04-06T20:16:16.366Z,6.18
2023-04-06T20:18:43.901Z,5.72
2023-04-06T20:21:11.565Z,5.65
2023-04-06T20:23:39.115Z,5.53
2023-04-06T20:26:10.354Z,6.15
2023-04-06T20:28:39.367Z,5.63
2023-04-06T20:31:08.332Z,4.72
2023-04-06T20:33:36.357Z,5.07
2023-04-06T20:36:04.323Z,5.20
2023-04-06T20:38:33.960Z,5.15
2023-04-06T20:41:02.039Z,5.20
2023-04-06T20:43:31.462Z,4.70
2023-04-06T20:46:01.684Z,4.70
2023-04-06T20:48:35.931Z,5.20
2023-04-06T20:51:04.020Z,5.85
2023-04-06T20:53:31.795Z,11.48
2023-04-06T20:55:59.291Z,10.18
2023-04-06T20:58:27.073Z,11.30
2023-04-06T21:00:54.556Z,9.18
2023-04-06T21:03:22.248Z,10.02
2023-04-06T21:05:57.240Z,6.95
2023-04-06T21:08:24.812Z,6.72
2023-04-06T21:10:52.320Z,7.30
2023-04-06T21:13:19.829Z,6.35
2023-04-06T21:15:47.368Z,5.75
2023-04-06T21:18:14.932Z,6.60
2023-04-06T21:20:42.428Z,6.35
2023-04-06T21:23:11.985Z,5.60
2023-04-06T21:25:39.747Z,6.40
2023-04-06T21:28:07.315Z,6.90
2023-04-06T21:30:37.033Z,6.07
2023-04-06T21:33:04.926Z,6.55
2023-04-06T21:35:32.494Z,6.65
2023-04-06T21:38:00.373Z,6.65
2023-04-06T21:40:29.319Z,5.60
2023-04-06T21:42:56.868Z,6.75
2023-04-06T21:45:24.429Z,6.47
2023-04-06T21:47:52.191Z,6.22
2023-04-06T21:50:19.737Z,7.20
2023-04-06T21:52:47.327Z,6.40
2023-04-06T21:55:15.149Z,6.97
2023-04-06T21:57:44.859Z,5.90
2023-04-06T22:00:13.530Z,7.13
2023-04-06T22:02:41.290Z,6.50
2023-04-06T22:05:09.525Z,6.07
2023-04-06T22:07:37.078Z,6.57
2023-04-06T22:10:05.129Z,6.90
2023-04-06T22:12:32.670Z,6.22
2023-04-06T22:15:01.521Z,6.65
2023-04-06T22:17:29.105Z,6.65
2023-04-06T22:19:56.772Z,7.40
2023-04-06T22:22:25.627Z,7.78
2023-04-06T22:24:53.214Z,6.75
2023-04-06T22:27:20.720Z,6.85
2023-04-06T22:29:48.205Z,7.32
2023-04-06T22:32:17.100Z,6.80
2023-04-06T22:34:44.717Z,7.50
2023-04-06T22:37:12.199Z,7.82
2023-04-06T22:39:39.707Z,7.13
2023-04-06T22:42:07.233Z,7.70
2023-04-06T22:44:34.773Z,7.10
2023-04-06T22:47:02.299Z,6.90
2023-04-06T22:49:31.371Z,6.80
2023-04-06T22:51:58.880Z,6.95
2023-04-06T22:54:27.052Z,7.57
2023-04-06T22:56:54.895Z,8.10
2023-04-06T22:59:22.433Z,8.60
2023-04-06T23:01:50.076Z,8.00
2023-04-06T23:04:18.062Z,7.05
2023-04-06T23:06:47.116Z,7.05
2023-04-06T23:09:14.707Z,7.78
2023-04-06T23:11:42.231Z,7.57
2023-04-06T23:14:09.728Z,7.28
2023-04-06T23:16:37.287Z,6.13
2023-04-06T23:19:04.858Z,6.47
2023-04-06T23:21:33.231Z,7.80
2023-04-06T23:24:02.578Z,7.50
2023-04-06T23:26:30.531Z,5.75
2023-04-06T23:28:58.095Z,5.00
2023-04-06T23:31:25.769Z,4.35
2023-04-06T23:33:53.278Z,4.00
2023-04-06T23:36:20.847Z,4.07
2023-04-06T23:38:48.349Z,3.78
2023-04-06T23:41:17.228Z,3.47
2023-04-06T23:43:44.831Z,4.00
2023-04-06T23:46:16.881Z,3.40
2023-04-06T23:48:44.449Z,4.68
2023-04-06T23:51:12.236Z,3.58
2023-04-06T23:53:39.785Z,3.50
2023-04-06T23:56:07.676Z,3.72
2023-04-06T23:58:36.561Z,3.63
